sensor_id;sensor_type;location;lat;lon;timestamp;temperature;humidity
17405;DHT22;8820;54.604;18.226;2022-11-15T00:02:35;9.50;99.90
17405;DHT22;8820;54.604;18.226;2022-11-15T00:05:22;9.40;99.90
17405;DHT22;8820;54.604;18.226;2022-11-15T00:08:10;9.30;99.90
17405;DHT22;8820;54.604;18.226;2022-11-15T00:10:57;9.40;99.90
17405;DHT22;8820;54.604;18.226;2022-11-15T00:13:46;9.30;99.90
17405;DHT22;8820;54.604;18.226;2022-11-15T00:16:33;9.30;99.90
17405;DHT22;8820;54.604;18.226;2022-11-15T00:19:20;9.10;99.90
17405;DHT22;8820;54.604;18.226;2022-11-15T00:22:07;9.20;99.90
17405;DHT22;8820;54.604;18.226;2022-11-15T00:24:55;9.30;99.90
17405;DHT22;8820;54.604;18.226;2022-11-15T00:27:42;9.30;99.90
17405;DHT22;8820;54.604;18.226;2022-11-15T00:30:31;9.20;99.90
17405;DHT22;8820;54.604;18.226;2022-11-15T00:33:18;9.20;99.90
17405;DHT22;8820;54.604;18.226;2022-11-15T00:36:08;9.20;99.90
17405;DHT22;8820;54.604;18.226;2022-11-15T00:38:56;9.20;99.90
17405;DHT22;8820;54.604;18.226;2022-11-15T00:41:43;9.10;99.90
17405;DHT22;8820;54.604;18.226;2022-11-15T00:44:30;9.20;99.90
17405;DHT22;8820;54.604;18.226;2022-11-15T00:47:19;9.30;99.90
17405;DHT22;8820;54.604;18.226;2022-11-15T00:50:07;9.30;99.90
17405;DHT22;8820;54.604;18.226;2022-11-15T00:52:59;9.30;99.90
17405;DHT22;8820;54.604;18.226;2022-11-15T00:55:46;9.30;99.90
17405;DHT22;8820;54.604;18.226;2022-11-15T00:58:33;9.30;99.90
17405;DHT22;8820;54.604;18.226;2022-11-15T01:01:20;9.30;99.90
17405;DHT22;8820;54.604;18.226;2022-11-15T01:04:09;9.40;99.90
17405;DHT22;8820;54.604;18.226;2022-11-15T01:06:56;9.40;99.90
17405;DHT22;8820;54.604;18.226;2022-11-15T01:09:43;9.40;99.90
17405;DHT22;8820;54.604;18.226;2022-11-15T01:12:31;9.40;99.90
17405;DHT22;8820;54.604;18.226;2022-11-15T01:15:18;9.50;99.90
17405;DHT22;8820;54.604;18.226;2022-11-15T01:18:05;9.40;99.90
17405;DHT22;8820;54.604;18.226;2022-11-15T01:20:54;9.30;99.90
17405;DHT22;8820;54.604;18.226;2022-11-15T01:23:41;9.40;99.90
17405;DHT22;8820;54.604;18.226;2022-11-15T01:26:29;9.40;99.90
17405;DHT22;8820;54.604;18.226;2022-11-15T01:29:16;9.40;99.90
17405;DHT22;8820;54.604;18.226;2022-11-15T01:32:03;9.30;99.90
17405;DHT22;8820;54.604;18.226;2022-11-15T01:34:51;9.10;99.90
17405;DHT22;8820;54.604;18.226;2022-11-15T01:37:39;9.10;99.90
17405;DHT22;8820;54.604;18.226;2022-11-15T01:40:27;9.20;99.90
17405;DHT22;8820;54.604;18.226;2022-11-15T01:43:25;9.30;99.90
17405;DHT22;8820;54.604;18.226;2022-11-15T01:46:28;9.30;99.90
17405;DHT22;8820;54.604;18.226;2022-11-15T01:49:18;9.10;99.90
17405;DHT22;8820;54.604;18.226;2022-11-15T01:52:09;9.10;99.90
17405;DHT22;8820;54.604;18.226;2022-11-15T01:55:03;9.20;99.90
17405;DHT22;8820;54.604;18.226;2022-11-15T01:57:56;9.10;99.90
17405;DHT22;8820;54.604;18.226;2022-11-15T02:00:44;9.10;99.90
17405;DHT22;8820;54.604;18.226;2022-11-15T02:03:38;9.10;99.90
17405;DHT22;8820;54.604;18.226;2022-11-15T02:06:27;9.00;99.90
17405;DHT22;8820;54.604;18.226;2022-11-15T02:09:16;9.00;99.90
17405;DHT22;8820;54.604;18.226;2022-11-15T02:12:06;9.10;99.90
17405;DHT22;8820;54.604;18.226;2022-11-15T02:14:55;9.10;99.90
17405;DHT22;8820;54.604;18.226;2022-11-15T02:18:03;9.10;99.90
17405;DHT22;8820;54.604;18.226;2022-11-15T02:21:13;9.20;99.90
17405;DHT22;8820;54.604;18.226;2022-11-15T02:24:35;9.20;99.90
17405;DHT22;8820;54.604;18.226;2022-11-15T02:27:50;9.30;99.90
17405;DHT22;8820;54.604;18.226;2022-11-15T02:30:45;9.20;99.90
17405;DHT22;8820;54.604;18.226;2022-11-15T02:33:38;9.30;99.90
17405;DHT22;8820;54.604;18.226;2022-11-15T02:36:35;9.30;99.90
17405;DHT22;8820;54.604;18.226;2022-11-15T02:39:28;9.10;99.90
17405;DHT22;8820;54.604;18.226;2022-11-15T02:42:20;9.00;99.90
17405;DHT22;8820;54.604;18.226;2022-11-15T02:45:28;8.90;99.90
17405;DHT22;8820;54.604;18.226;2022-11-15T02:48:20;8.90;99.90
17405;DHT22;8820;54.604;18.226;2022-11-15T02:51:08;8.90;99.90
17405;DHT22;8820;54.604;18.226;2022-11-15T02:53:56;9.00;99.90
17405;DHT22;8820;54.604;18.226;2022-11-15T02:56:45;8.90;99.90
17405;DHT22;8820;54.604;18.226;2022-11-15T02:59:48;8.90;99.90
17405;DHT22;8820;54.604;18.226;2022-11-15T03:03:08;9.00;99.90
17405;DHT22;8820;54.604;18.226;2022-11-15T03:06:09;9.10;99.90
17405;DHT22;8820;54.604;18.226;2022-11-15T03:09:04;9.10;99.90
17405;DHT22;8820;54.604;18.226;2022-11-15T03:11:58;9.10;99.90
17405;DHT22;8820;54.604;18.226;2022-11-15T03:14:53;9.10;99.90
17405;DHT22;8820;54.604;18.226;2022-11-15T03:17:45;9.10;99.90
17405;DHT22;8820;54.604;18.226;2022-11-15T03:20:36;9.20;99.90
17405;DHT22;8820;54.604;18.226;2022-11-15T03:23:25;9.30;99.90
17405;DHT22;8820;54.604;18.226;2022-11-15T03:26:14;9.20;99.90
17405;DHT22;8820;54.604;18.226;2022-11-15T03:29:06;9.10;99.90
17405;DHT22;8820;54.604;18.226;2022-11-15T03:31:58;9.10;99.90
17405;DHT22;8820;54.604;18.226;2022-11-15T03:34:50;9.20;99.90
17405;DHT22;8820;54.604;18.226;2022-11-15T03:37:44;9.20;99.90
17405;DHT22;8820;54.604;18.226;2022-11-15T03:40:38;9.20;99.90
17405;DHT22;8820;54.604;18.226;2022-11-15T03:43:39;9.30;99.90
17405;DHT22;8820;54.604;18.226;2022-11-15T03:46:32;9.30;99.90
17405;DHT22;8820;54.604;18.226;2022-11-15T03:49:24;9.30;99.90
17405;DHT22;8820;54.604;18.226;2022-11-15T03:52:12;9.30;99.90
17405;DHT22;8820;54.604;18.226;2022-11-15T03:55:01;9.40;99.90
17405;DHT22;8820;54.604;18.226;2022-11-15T03:57:53;9.30;99.90
17405;DHT22;8820;54.604;18.226;2022-11-15T04:00:41;9.20;99.90
17405;DHT22;8820;54.604;18.226;2022-11-15T04:03:28;9.30;99.90
17405;DHT22;8820;54.604;18.226;2022-11-15T04:06:15;9.30;99.90
17405;DHT22;8820;54.604;18.226;2022-11-15T04:09:03;9.40;99.90
17405;DHT22;8820;54.604;18.226;2022-11-15T04:11:50;9.30;99.90
17405;DHT22;8820;54.604;18.226;2022-11-15T04:14:39;9.30;99.90
17405;DHT22;8820;54.604;18.226;2022-11-15T04:17:47;9.20;99.90
17405;DHT22;8820;54.604;18.226;2022-11-15T04:20:34;9.00;99.90
17405;DHT22;8820;54.604;18.226;2022-11-15T04:23:39;9.00;99.90
17405;DHT22;8820;54.604;18.226;2022-11-15T04:26:46;8.90;99.90
17405;DHT22;8820;54.604;18.226;2022-11-15T04:29:33;8.90;99.90
17405;DHT22;8820;54.604;18.226;2022-11-15T04:32:24;9.00;99.90
17405;DHT22;8820;54.604;18.226;2022-11-15T04:35:12;9.10;99.90
17405;DHT22;8820;54.604;18.226;2022-11-15T04:38:00;9.10;99.90
17405;DHT22;8820;54.604;18.226;2022-11-15T04:40:47;9.10;99.90
17405;DHT22;8820;54.604;18.226;2022-11-15T04:43:34;9.20;99.90
17405;DHT22;8820;54.604;18.226;2022-11-15T04:46:22;9.20;99.90
17405;DHT22;8820;54.604;18.226;2022-11-15T04:49:10;9.30;99.90
17405;DHT22;8820;54.604;18.226;2022-11-15T04:51:57;9.20;99.90
17405;DHT22;8820;54.604;18.226;2022-11-15T04:54:44;9.10;99.90
17405;DHT22;8820;54.604;18.226;2022-11-15T04:57:31;9.10;99.90
17405;DHT22;8820;54.604;18.226;2022-11-15T05:00:19;8.90;99.90
17405;DHT22;8820;54.604;18.226;2022-11-15T05:03:05;8.90;99.90
17405;DHT22;8820;54.604;18.226;2022-11-15T05:06:12;9.00;99.90
17405;DHT22;8820;54.604;18.226;2022-11-15T05:08:58;8.90;99.90
17405;DHT22;8820;54.604;18.226;2022-11-15T05:11:45;8.70;99.90
17405;DHT22;8820;54.604;18.226;2022-11-15T05:14:33;8.70;99.90
17405;DHT22;8820;54.604;18.226;2022-11-15T05:17:20;8.80;99.90
17405;DHT22;8820;54.604;18.226;2022-11-15T05:20:08;8.80;99.90
17405;DHT22;8820;54.604;18.226;2022-11-15T05:22:56;8.80;99.90
17405;DHT22;8820;54.604;18.226;2022-11-15T05:25:43;8.80;99.90
17405;DHT22;8820;54.604;18.226;2022-11-15T05:28:31;8.80;99.90
17405;DHT22;8820;54.604;18.226;2022-11-15T05:31:18;8.70;99.90
17405;DHT22;8820;54.604;18.226;2022-11-15T05:34:05;8.70;99.90
17405;DHT22;8820;54.604;18.226;2022-11-15T05:36:52;8.70;99.90
17405;DHT22;8820;54.604;18.226;2022-11-15T05:39:41;8.80;99.90
17405;DHT22;8820;54.604;18.226;2022-11-15T05:42:29;8.90;99.90
17405;DHT22;8820;54.604;18.226;2022-11-15T05:45:16;8.90;99.90
17405;DHT22;8820;54.604;18.226;2022-11-15T05:48:11;8.80;99.90
17405;DHT22;8820;54.604;18.226;2022-11-15T05:50:59;8.90;99.90
17405;DHT22;8820;54.604;18.226;2022-11-15T05:53:47;8.90;99.90
17405;DHT22;8820;54.604;18.226;2022-11-15T05:56:36;8.90;99.90
17405;DHT22;8820;54.604;18.226;2022-11-15T05:59:23;8.90;99.90
17405;DHT22;8820;54.604;18.226;2022-11-15T06:02:11;8.70;99.90
17405;DHT22;8820;54.604;18.226;2022-11-15T06:04:58;8.70;99.90
17405;DHT22;8820;54.604;18.226;2022-11-15T06:07:45;8.80;99.90
17405;DHT22;8820;54.604;18.226;2022-11-15T06:10:32;8.80;99.90
17405;DHT22;8820;54.604;18.226;2022-11-15T06:13:20;8.70;99.90
17405;DHT22;8820;54.604;18.226;2022-11-15T06:16:08;8.80;99.90
17405;DHT22;8820;54.604;18.226;2022-11-15T06:18:55;8.90;99.90
17405;DHT22;8820;54.604;18.226;2022-11-15T06:21:42;8.90;99.90
17405;DHT22;8820;54.604;18.226;2022-11-15T06:24:29;8.80;99.90
17405;DHT22;8820;54.604;18.226;2022-11-15T06:27:16;8.80;99.90
17405;DHT22;8820;54.604;18.226;2022-11-15T06:30:05;8.90;99.90
17405;DHT22;8820;54.604;18.226;2022-11-15T06:32:59;9.00;99.90
17405;DHT22;8820;54.604;18.226;2022-11-15T06:35:47;9.10;99.90
17405;DHT22;8820;54.604;18.226;2022-11-15T06:38:34;9.10;99.90
17405;DHT22;8820;54.604;18.226;2022-11-15T06:41:21;9.10;99.90
17405;DHT22;8820;54.604;18.226;2022-11-15T06:44:08;9.10;99.90
17405;DHT22;8820;54.604;18.226;2022-11-15T06:46:56;9.00;99.90
17405;DHT22;8820;54.604;18.226;2022-11-15T06:49:44;9.00;99.90
17405;DHT22;8820;54.604;18.226;2022-11-15T06:52:32;9.10;99.90
17405;DHT22;8820;54.604;18.226;2022-11-15T06:55:19;9.10;99.90
17405;DHT22;8820;54.604;18.226;2022-11-15T06:58:06;9.00;99.90
17405;DHT22;8820;54.604;18.226;2022-11-15T07:00:53;8.90;99.90
17405;DHT22;8820;54.604;18.226;2022-11-15T07:03:42;8.90;99.90
17405;DHT22;8820;54.604;18.226;2022-11-15T07:06:30;8.90;99.90
17405;DHT22;8820;54.604;18.226;2022-11-15T07:09:17;8.80;99.90
17405;DHT22;8820;54.604;18.226;2022-11-15T07:12:05;8.90;99.90
17405;DHT22;8820;54.604;18.226;2022-11-15T07:14:52;8.80;99.90
17405;DHT22;8820;54.604;18.226;2022-11-15T07:17:39;8.90;99.90
17405;DHT22;8820;54.604;18.226;2022-11-15T07:20:28;8.90;99.90
17405;DHT22;8820;54.604;18.226;2022-11-15T07:23:15;8.90;99.90
17405;DHT22;8820;54.604;18.226;2022-11-15T07:26:02;9.00;99.90
17405;DHT22;8820;54.604;18.226;2022-11-15T07:28:49;9.10;99.90
17405;DHT22;8820;54.604;18.226;2022-11-15T07:31:36;9.00;99.90
17405;DHT22;8820;54.604;18.226;2022-11-15T07:34:23;9.00;99.90
17405;DHT22;8820;54.604;18.226;2022-11-15T07:37:12;9.10;99.90
17405;DHT22;8820;54.604;18.226;2022-11-15T07:39:59;9.10;99.90
17405;DHT22;8820;54.604;18.226;2022-11-15T07:42:46;9.10;99.90
17405;DHT22;8820;54.604;18.226;2022-11-15T07:45:41;9.00;99.90
17405;DHT22;8820;54.604;18.226;2022-11-15T07:48:28;9.00;99.90
17405;DHT22;8820;54.604;18.226;2022-11-15T07:51:27;9.00;99.90
17405;DHT22;8820;54.604;18.226;2022-11-15T07:54:15;9.10;99.90
17405;DHT22;8820;54.604;18.226;2022-11-15T07:57:02;8.90;99.90
17405;DHT22;8820;54.604;18.226;2022-11-15T07:59:52;9.00;99.90
17405;DHT22;8820;54.604;18.226;2022-11-15T08:02:39;9.10;99.90
17405;DHT22;8820;54.604;18.226;2022-11-15T08:05:26;9.20;99.90
17405;DHT22;8820;54.604;18.226;2022-11-15T08:08:14;9.30;99.90
17405;DHT22;8820;54.604;18.226;2022-11-15T08:11:02;9.40;99.90
17405;DHT22;8820;54.604;18.226;2022-11-15T08:13:50;9.50;99.90
17405;DHT22;8820;54.604;18.226;2022-11-15T08:16:36;9.50;99.90
17405;DHT22;8820;54.604;18.226;2022-11-15T08:19:24;9.50;99.90
17405;DHT22;8820;54.604;18.226;2022-11-15T08:22:11;9.70;99.90
17405;DHT22;8820;54.604;18.226;2022-11-15T08:24:58;9.70;99.90
17405;DHT22;8820;54.604;18.226;2022-11-15T08:27:47;9.60;99.90
17405;DHT22;8820;54.604;18.226;2022-11-15T08:30:36;9.60;99.90
17405;DHT22;8820;54.604;18.226;2022-11-15T08:33:23;9.40;99.90
17405;DHT22;8820;54.604;18.226;2022-11-15T08:43:07;9.40;99.90
17405;DHT22;8820;54.604;18.226;2022-11-15T08:45:55;9.30;99.90
17405;DHT22;8820;54.604;18.226;2022-11-15T08:48:43;9.30;99.90
17405;DHT22;8820;54.604;18.226;2022-11-15T08:51:30;9.30;99.90
17405;DHT22;8820;54.604;18.226;2022-11-15T08:54:17;9.30;99.90
17405;DHT22;8820;54.604;18.226;2022-11-15T08:57:04;9.30;99.90
17405;DHT22;8820;54.604;18.226;2022-11-15T08:59:53;9.30;99.90
17405;DHT22;8820;54.604;18.226;2022-11-15T09:02:40;9.30;99.90
17405;DHT22;8820;54.604;18.226;2022-11-15T09:05:28;9.50;99.90
17405;DHT22;8820;54.604;18.226;2022-11-15T09:08:15;9.60;99.90
17405;DHT22;8820;54.604;18.226;2022-11-15T09:11:21;9.60;99.90
17405;DHT22;8820;54.604;18.226;2022-11-15T09:14:10;9.50;99.90
17405;DHT22;8820;54.604;18.226;2022-11-15T09:16:59;9.50;99.90
17405;DHT22;8820;54.604;18.226;2022-11-15T09:19:46;9.50;99.90
17405;DHT22;8820;54.604;18.226;2022-11-15T09:22:34;9.50;99.90
17405;DHT22;8820;54.604;18.226;2022-11-15T09:25:21;9.60;99.90
17405;DHT22;8820;54.604;18.226;2022-11-15T09:28:08;9.60;99.90
17405;DHT22;8820;54.604;18.226;2022-11-15T09:30:57;9.60;99.90
17405;DHT22;8820;54.604;18.226;2022-11-15T09:33:46;9.60;99.90
17405;DHT22;8820;54.604;18.226;2022-11-15T09:36:33;9.70;99.90
17405;DHT22;8820;54.604;18.226;2022-11-15T09:39:20;9.70;99.90
17405;DHT22;8820;54.604;18.226;2022-11-15T09:42:24;9.70;99.90
17405;DHT22;8820;54.604;18.226;2022-11-15T09:45:20;9.60;99.90
17405;DHT22;8820;54.604;18.226;2022-11-15T09:48:23;9.60;99.90
17405;DHT22;8820;54.604;18.226;2022-11-15T09:51:16;9.70;99.90
17405;DHT22;8820;54.604;18.226;2022-11-15T09:53:55;9.70;99.90
17405;DHT22;8820;54.604;18.226;2022-11-15T09:56:45;9.70;99.90
17405;DHT22;8820;54.604;18.226;2022-11-15T09:59:23;9.60;99.90
17405;DHT22;8820;54.604;18.226;2022-11-15T10:01:59;9.70;99.90
17405;DHT22;8820;54.604;18.226;2022-11-15T10:04:31;9.70;99.90
17405;DHT22;8820;54.604;18.226;2022-11-15T10:07:06;9.60;99.90
17405;DHT22;8820;54.604;18.226;2022-11-15T10:09:43;9.60;99.90
17405;DHT22;8820;54.604;18.226;2022-11-15T10:12:14;9.50;99.90
17405;DHT22;8820;54.604;18.226;2022-11-15T10:14:44;9.50;99.90
17405;DHT22;8820;54.604;18.226;2022-11-15T10:17:54;9.50;99.90
17405;DHT22;8820;54.604;18.226;2022-11-15T10:20:26;9.50;99.90
17405;DHT22;8820;54.604;18.226;2022-11-15T10:22:58;9.70;99.90
17405;DHT22;8820;54.604;18.226;2022-11-15T10:25:29;9.80;99.90
17405;DHT22;8820;54.604;18.226;2022-11-15T10:28:01;9.70;99.90
17405;DHT22;8820;54.604;18.226;2022-11-15T10:30:32;9.90;99.90
17405;DHT22;8820;54.604;18.226;2022-11-15T10:36:20;9.80;99.90
17405;DHT22;8820;54.604;18.226;2022-11-15T10:38:55;9.70;99.90
17405;DHT22;8820;54.604;18.226;2022-11-15T10:41:37;9.70;99.90
17405;DHT22;8820;54.604;18.226;2022-11-15T10:47:20;9.70;99.90
17405;DHT22;8820;54.604;18.226;2022-11-15T10:50:01;9.80;99.90
17405;DHT22;8820;54.604;18.226;2022-11-15T10:52:31;9.70;99.90
17405;DHT22;8820;54.604;18.226;2022-11-15T10:55:12;9.70;99.90
17405;DHT22;8820;54.604;18.226;2022-11-15T10:57:50;9.70;99.90
17405;DHT22;8820;54.604;18.226;2022-11-15T11:00:40;9.90;99.90
17405;DHT22;8820;54.604;18.226;2022-11-15T11:03:28;10.10;99.90
17405;DHT22;8820;54.604;18.226;2022-11-15T11:06:06;10.20;99.90
17405;DHT22;8820;54.604;18.226;2022-11-15T11:08:35;10.20;99.90
17405;DHT22;8820;54.604;18.226;2022-11-15T11:11:06;10.30;99.90
17405;DHT22;8820;54.604;18.226;2022-11-15T11:13:37;10.40;99.90
17405;DHT22;8820;54.604;18.226;2022-11-15T11:16:30;10.50;99.90
17405;DHT22;8820;54.604;18.226;2022-11-15T11:19:15;10.40;99.90
17405;DHT22;8820;54.604;18.226;2022-11-15T11:21:51;10.50;99.90
17405;DHT22;8820;54.604;18.226;2022-11-15T11:24:27;10.40;99.90
17405;DHT22;8820;54.604;18.226;2022-11-15T11:27:21;10.40;99.90
17405;DHT22;8820;54.604;18.226;2022-11-15T11:30:12;10.30;99.90
17405;DHT22;8820;54.604;18.226;2022-11-15T11:33:01;10.30;99.90
17405;DHT22;8820;54.604;18.226;2022-11-15T11:35:35;10.50;99.90
17405;DHT22;8820;54.604;18.226;2022-11-15T11:38:19;10.60;99.90
17405;DHT22;8820;54.604;18.226;2022-11-15T11:40:59;10.50;99.90
17405;DHT22;8820;54.604;18.226;2022-11-15T11:43:34;10.40;99.90
17405;DHT22;8820;54.604;18.226;2022-11-15T11:46:16;10.40;99.90
17405;DHT22;8820;54.604;18.226;2022-11-15T11:48:48;10.40;99.90
17405;DHT22;8820;54.604;18.226;2022-11-15T11:51:23;10.40;99.90
17405;DHT22;8820;54.604;18.226;2022-11-15T11:53:55;10.40;99.90
17405;DHT22;8820;54.604;18.226;2022-11-15T11:56:28;10.20;99.90
17405;DHT22;8820;54.604;18.226;2022-11-15T11:59:02;10.20;99.90
17405;DHT22;8820;54.604;18.226;2022-11-15T12:01:37;10.20;99.90
17405;DHT22;8820;54.604;18.226;2022-11-15T12:04:12;10.30;99.90
17405;DHT22;8820;54.604;18.226;2022-11-15T12:06:46;10.30;99.90
17405;DHT22;8820;54.604;18.226;2022-11-15T12:09:20;10.30;99.90
17405;DHT22;8820;54.604;18.226;2022-11-15T12:11:53;10.20;99.90
17405;DHT22;8820;54.604;18.226;2022-11-15T12:14:32;10.20;99.90
17405;DHT22;8820;54.604;18.226;2022-11-15T12:17:04;10.20;99.90
17405;DHT22;8820;54.604;18.226;2022-11-15T12:19:33;10.20;99.90
17405;DHT22;8820;54.604;18.226;2022-11-15T12:22:04;10.10;99.90
17405;DHT22;8820;54.604;18.226;2022-11-15T12:24:38;10.10;99.90
17405;DHT22;8820;54.604;18.226;2022-11-15T12:27:16;10.10;99.90
17405;DHT22;8820;54.604;18.226;2022-11-15T12:29:55;10.00;99.90
17405;DHT22;8820;54.604;18.226;2022-11-15T12:32:28;10.00;99.90
17405;DHT22;8820;54.604;18.226;2022-11-15T12:34:58;9.90;99.90
17405;DHT22;8820;54.604;18.226;2022-11-15T12:37:49;9.90;99.90
17405;DHT22;8820;54.604;18.226;2022-11-15T12:40:35;9.90;99.90
17405;DHT22;8820;54.604;18.226;2022-11-15T12:46:02;9.80;99.90
17405;DHT22;8820;54.604;18.226;2022-11-15T12:48:51;9.90;99.90
17405;DHT22;8820;54.604;18.226;2022-11-15T12:57:40;9.80;99.90
17405;DHT22;8820;54.604;18.226;2022-11-15T13:00:42;9.80;99.90
17405;DHT22;8820;54.604;18.226;2022-11-15T13:03:28;9.80;99.90
17405;DHT22;8820;54.604;18.226;2022-11-15T13:06:05;9.80;99.90
17405;DHT22;8820;54.604;18.226;2022-11-15T13:08:44;9.90;99.90
17405;DHT22;8820;54.604;18.226;2022-11-15T13:11:48;9.90;99.90
17405;DHT22;8820;54.604;18.226;2022-11-15T13:14:42;9.90;99.90
17405;DHT22;8820;54.604;18.226;2022-11-15T13:17:21;9.90;99.90
17405;DHT22;8820;54.604;18.226;2022-11-15T13:19:58;9.90;99.90
17405;DHT22;8820;54.604;18.226;2022-11-15T13:22:28;9.90;99.90
17405;DHT22;8820;54.604;18.226;2022-11-15T13:28:32;10.00;99.90
17405;DHT22;8820;54.604;18.226;2022-11-15T13:31:13;9.90;99.90
17405;DHT22;8820;54.604;18.226;2022-11-15T13:33:46;9.90;99.90
17405;DHT22;8820;54.604;18.226;2022-11-15T13:36:20;9.80;99.90
17405;DHT22;8820;54.604;18.226;2022-11-15T13:38:58;9.80;99.90
17405;DHT22;8820;54.604;18.226;2022-11-15T13:41:28;9.90;99.90
17405;DHT22;8820;54.604;18.226;2022-11-15T13:43:58;9.90;99.90
17405;DHT22;8820;54.604;18.226;2022-11-15T13:46:28;9.90;99.90
17405;DHT22;8820;54.604;18.226;2022-11-15T13:48:59;9.90;99.90
17405;DHT22;8820;54.604;18.226;2022-11-15T13:51:35;9.90;99.90
17405;DHT22;8820;54.604;18.226;2022-11-15T13:54:13;9.80;99.90
17405;DHT22;8820;54.604;18.226;2022-11-15T13:56:45;9.90;99.90
17405;DHT22;8820;54.604;18.226;2022-11-15T13:59:20;9.80;99.90
17405;DHT22;8820;54.604;18.226;2022-11-15T14:01:51;9.80;99.90
17405;DHT22;8820;54.604;18.226;2022-11-15T14:04:22;9.80;99.90
17405;DHT22;8820;54.604;18.226;2022-11-15T14:06:56;9.80;99.90
17405;DHT22;8820;54.604;18.226;2022-11-15T14:09:34;9.70;99.90
17405;DHT22;8820;54.604;18.226;2022-11-15T14:12:23;9.60;99.90
17405;DHT22;8820;54.604;18.226;2022-11-15T14:14:52;9.60;99.90
17405;DHT22;8820;54.604;18.226;2022-11-15T14:17:32;9.60;99.90
17405;DHT22;8820;54.604;18.226;2022-11-15T14:20:02;9.60;99.90
17405;DHT22;8820;54.604;18.226;2022-11-15T14:22:55;9.60;99.90
17405;DHT22;8820;54.604;18.226;2022-11-15T14:25:25;9.70;99.90
17405;DHT22;8820;54.604;18.226;2022-11-15T14:28:15;9.70;99.90
17405;DHT22;8820;54.604;18.226;2022-11-15T14:30:45;9.60;99.90
17405;DHT22;8820;54.604;18.226;2022-11-15T14:33:23;9.60;99.90
17405;DHT22;8820;54.604;18.226;2022-11-15T14:35:52;9.50;99.90
17405;DHT22;8820;54.604;18.226;2022-11-15T14:38:23;9.50;99.90
17405;DHT22;8820;54.604;18.226;2022-11-15T14:40:51;9.50;99.90
17405;DHT22;8820;54.604;18.226;2022-11-15T14:43:21;9.50;99.90
17405;DHT22;8820;54.604;18.226;2022-11-15T14:45:49;9.70;99.90
17405;DHT22;8820;54.604;18.226;2022-11-15T14:48:18;9.70;99.90
17405;DHT22;8820;54.604;18.226;2022-11-15T14:50:46;9.80;99.90
17405;DHT22;8820;54.604;18.226;2022-11-15T14:53:16;9.70;99.90
17405;DHT22;8820;54.604;18.226;2022-11-15T14:55:47;9.70;99.90
17405;DHT22;8820;54.604;18.226;2022-11-15T14:58:16;9.70;99.90
17405;DHT22;8820;54.604;18.226;2022-11-15T15:00:44;9.80;99.90
17405;DHT22;8820;54.604;18.226;2022-11-15T15:03:12;9.80;99.90
17405;DHT22;8820;54.604;18.226;2022-11-15T15:05:49;9.80;99.90
17405;DHT22;8820;54.604;18.226;2022-11-15T15:08:18;9.70;99.90
17405;DHT22;8820;54.604;18.226;2022-11-15T15:10:54;9.70;99.90
17405;DHT22;8820;54.604;18.226;2022-11-15T15:13:24;9.70;99.90
17405;DHT22;8820;54.604;18.226;2022-11-15T15:15:52;9.70;99.90
17405;DHT22;8820;54.604;18.226;2022-11-15T15:18:21;9.70;99.90
17405;DHT22;8820;54.604;18.226;2022-11-15T15:20:54;9.60;99.90
17405;DHT22;8820;54.604;18.226;2022-11-15T15:23:24;9.60;99.90
17405;DHT22;8820;54.604;18.226;2022-11-15T15:25:57;9.70;99.90
17405;DHT22;8820;54.604;18.226;2022-11-15T15:28:26;9.70;99.90
17405;DHT22;8820;54.604;18.226;2022-11-15T15:31:00;9.70;99.90
17405;DHT22;8820;54.604;18.226;2022-11-15T15:33:28;9.60;99.90
17405;DHT22;8820;54.604;18.226;2022-11-15T15:35:57;9.60;99.90
17405;DHT22;8820;54.604;18.226;2022-11-15T15:38:26;9.60;99.90
17405;DHT22;8820;54.604;18.226;2022-11-15T15:40:55;9.60;99.90
17405;DHT22;8820;54.604;18.226;2022-11-15T15:43:25;9.50;99.90
17405;DHT22;8820;54.604;18.226;2022-11-15T15:45:53;9.40;99.90
17405;DHT22;8820;54.604;18.226;2022-11-15T15:48:21;9.40;99.90
17405;DHT22;8820;54.604;18.226;2022-11-15T15:50:50;9.50;99.90
17405;DHT22;8820;54.604;18.226;2022-11-15T15:53:18;9.60;99.90
17405;DHT22;8820;54.604;18.226;2022-11-15T15:55:47;9.60;99.90
17405;DHT22;8820;54.604;18.226;2022-11-15T15:58:15;9.60;99.90
17405;DHT22;8820;54.604;18.226;2022-11-15T16:00:45;9.70;99.90
17405;DHT22;8820;54.604;18.226;2022-11-15T16:03:14;9.70;99.90
17405;DHT22;8820;54.604;18.226;2022-11-15T16:05:42;9.70;99.90
17405;DHT22;8820;54.604;18.226;2022-11-15T16:08:17;9.60;99.90
17405;DHT22;8820;54.604;18.226;2022-11-15T16:10:49;9.50;99.90
17405;DHT22;8820;54.604;18.226;2022-11-15T16:13:18;9.40;99.90
17405;DHT22;8820;54.604;18.226;2022-11-15T16:15:50;9.40;99.90
17405;DHT22;8820;54.604;18.226;2022-11-15T16:18:20;9.30;99.90
17405;DHT22;8820;54.604;18.226;2022-11-15T16:20:49;9.30;99.90
17405;DHT22;8820;54.604;18.226;2022-11-15T16:23:21;9.40;99.90
17405;DHT22;8820;54.604;18.226;2022-11-15T16:25:52;9.50;99.90
17405;DHT22;8820;54.604;18.226;2022-11-15T16:28:24;9.50;99.90
17405;DHT22;8820;54.604;18.226;2022-11-15T16:31:02;9.50;99.90
17405;DHT22;8820;54.604;18.226;2022-11-15T16:33:31;9.50;99.90
17405;DHT22;8820;54.604;18.226;2022-11-15T16:36:00;9.60;99.90
17405;DHT22;8820;54.604;18.226;2022-11-15T16:38:29;9.50;99.90
17405;DHT22;8820;54.604;18.226;2022-11-15T16:40:58;9.60;99.90
17405;DHT22;8820;54.604;18.226;2022-11-15T16:43:27;9.60;99.90
17405;DHT22;8820;54.604;18.226;2022-11-15T16:45:55;9.50;99.90
17405;DHT22;8820;54.604;18.226;2022-11-15T16:48:26;9.50;99.90
17405;DHT22;8820;54.604;18.226;2022-11-15T16:50:56;9.40;99.90
17405;DHT22;8820;54.604;18.226;2022-11-15T16:53:26;9.40;99.90
17405;DHT22;8820;54.604;18.226;2022-11-15T16:55:55;9.40;99.90
17405;DHT22;8820;54.604;18.226;2022-11-15T16:58:24;9.50;99.90
17405;DHT22;8820;54.604;18.226;2022-11-15T17:00:53;9.40;99.90
17405;DHT22;8820;54.604;18.226;2022-11-15T17:03:25;9.50;99.90
17405;DHT22;8820;54.604;18.226;2022-11-15T17:05:57;9.50;99.90
17405;DHT22;8820;54.604;18.226;2022-11-15T17:08:26;9.60;99.90
17405;DHT22;8820;54.604;18.226;2022-11-15T17:10:55;9.60;99.90
17405;DHT22;8820;54.604;18.226;2022-11-15T17:13:23;9.60;99.90
17405;DHT22;8820;54.604;18.226;2022-11-15T17:16:03;9.60;99.90
17405;DHT22;8820;54.604;18.226;2022-11-15T17:18:33;9.60;99.90
17405;DHT22;8820;54.604;18.226;2022-11-15T17:21:05;9.50;99.90
17405;DHT22;8820;54.604;18.226;2022-11-15T17:23:34;9.50;99.90
17405;DHT22;8820;54.604;18.226;2022-11-15T17:26:04;9.40;99.90
17405;DHT22;8820;54.604;18.226;2022-11-15T17:28:55;9.50;99.90
17405;DHT22;8820;54.604;18.226;2022-11-15T17:31:23;9.50;99.90
17405;DHT22;8820;54.604;18.226;2022-11-15T17:33:54;9.50;99.90
17405;DHT22;8820;54.604;18.226;2022-11-15T17:36:22;9.40;99.90
17405;DHT22;8820;54.604;18.226;2022-11-15T17:38:51;9.40;99.90
17405;DHT22;8820;54.604;18.226;2022-11-15T17:41:25;9.40;99.90
17405;DHT22;8820;54.604;18.226;2022-11-15T17:43:55;9.40;99.90
17405;DHT22;8820;54.604;18.226;2022-11-15T17:46:25;9.50;99.90
17405;DHT22;8820;54.604;18.226;2022-11-15T17:48:56;9.50;99.90
17405;DHT22;8820;54.604;18.226;2022-11-15T17:51:25;9.40;99.90